Time;durP1;ratioP1;P1;durP2;ratioP2;P2;SDS_P1;SDS_P2;PMS_P1;PMS_P2;Temp;Humidity;BMP_temperature;BMP_pressure;BME280_temperature;BME280_humidity;BME280_pressure;Samples;Min_cycle;Max_cycle;Signal;HPM_P1;HPM_P2
2021/10/15 00:00:16;;;;;;;;;;;12.70;99.90;;;;;;4976353;28;20357;-71
2021/10/15 00:02:42;;;;;;;;;;;12.70;99.90;;;;;;4976401;28;19914;-71
2021/10/15 00:05:08;;;;;;;;;;;12.70;99.90;;;;;;4976389;28;19910;-71
2021/10/15 00:07:33;;;;;;;;;;;12.70;99.90;;;;;;4991330;28;19952;-71
2021/10/15 00:09:58;;;;;;;;;;;12.70;99.90;;;;;;4976307;28;19907;-71
2021/10/15 00:12:24;;;;;;;;;;;12.70;99.90;;;;;;4976170;28;20008;-71
2021/10/15 00:14:49;;;;;;;;;;;12.70;99.90;;;;;;4976217;28;19913;-71
2021/10/15 00:17:15;;;;;;;;;;;12.70;99.90;;;;;;4991068;28;19929;-71
2021/10/15 00:19:40;;;;;;;;;;;12.80;99.90;;;;;;4976016;28;19909;-72
2021/10/15 00:22:06;;;;;;;;;;;12.80;99.90;;;;;;4976267;28;19996;-71
2021/10/15 00:24:31;;;;;;;;;;;12.80;99.90;;;;;;4976042;28;20057;-72
2021/10/15 00:26:57;;;;;;;;;;;12.90;99.90;;;;;;4975934;28;19906;-72
2021/10/15 00:29:22;;;;;;;;;;;12.90;99.90;;;;;;4976218;28;19953;-71
2021/10/15 00:31:48;;;;;;;;;;;12.90;99.90;;;;;;4975834;28;19906;-71
2021/10/15 00:34:13;;;;;;;;;;;12.90;99.90;;;;;;4975849;28;20421;-71
2021/10/15 00:36:38;;;;;;;;;;;12.80;99.90;;;;;;4975813;28;19905;-71
2021/10/15 00:39:04;;;;;;;;;;;12.80;99.90;;;;;;4975673;28;19914;-71
2021/10/15 00:41:29;;;;;;;;;;;12.80;99.90;;;;;;4975676;28;20413;-71
2021/10/15 00:44:01;;;;;;;;;;;12.80;99.90;;;;;;4975645;28;20270;-71
2021/10/15 00:46:26;;;;;;;;;;;12.80;99.90;;;;;;4975613;28;19953;-71
2021/10/15 00:48:52;;;;;;;;;;;12.80;99.90;;;;;;4975584;28;19910;-71
2021/10/15 00:51:18;;;;;;;;;;;12.80;99.90;;;;;;4975466;28;19906;-71
2021/10/15 00:53:44;;;;;;;;;;;12.80;99.90;;;;;;4975545;28;19906;-71
2021/10/15 00:56:09;;;;;;;;;;;12.80;99.90;;;;;;4975433;28;19913;-71
2021/10/15 00:58:35;;;;;;;;;;;12.80;99.90;;;;;;4975330;28;19906;-71
2021/10/15 01:01:01;;;;;;;;;;;12.70;99.90;;;;;;4975766;28;20300;-71
2021/10/15 01:03:27;;;;;;;;;;;12.80;99.90;;;;;;4975553;28;19906;-71
2021/10/15 01:05:52;;;;;;;;;;;12.80;99.90;;;;;;4975381;28;20411;-71
2021/10/15 01:08:18;;;;;;;;;;;12.80;99.90;;;;;;4975839;28;20018;-71
2021/10/15 01:10:43;;;;;;;;;;;12.80;99.90;;;;;;4975160;28;19957;-71
2021/10/15 01:13:09;;;;;;;;;;;12.70;99.90;;;;;;4975770;28;20269;-71
2021/10/15 01:15:34;;;;;;;;;;;12.80;99.90;;;;;;4975188;28;19917;-71
2021/10/15 01:18:00;;;;;;;;;;;12.70;99.90;;;;;;4975715;28;20001;-71
2021/10/15 01:20:25;;;;;;;;;;;12.70;99.90;;;;;;4974956;28;20365;-71
2021/10/15 01:22:51;;;;;;;;;;;12.70;99.90;;;;;;4975360;28;20285;-71
2021/10/15 01:25:16;;;;;;;;;;;12.70;99.90;;;;;;4975587;28;19915;-71
2021/10/15 01:27:42;;;;;;;;;;;12.70;99.90;;;;;;4974989;28;20362;-71
2021/10/15 01:30:07;;;;;;;;;;;12.70;99.90;;;;;;4975546;28;20065;-70
2021/10/15 01:32:33;;;;;;;;;;;12.60;99.90;;;;;;4974894;28;19929;-70
2021/10/15 01:34:58;;;;;;;;;;;12.60;99.90;;;;;;4974901;28;19934;-70
2021/10/15 01:37:24;;;;;;;;;;;12.70;99.90;;;;;;4975173;28;19964;-71
2021/10/15 01:39:49;;;;;;;;;;;12.70;99.90;;;;;;4974725;28;19909;-70
2021/10/15 01:44:59;;;;;;;;;;;12.80;99.90;;;;;;4974886;28;19913;-71
2021/10/15 01:47:24;;;;;;;;;;;12.80;99.90;;;;;;4975031;28;19909;-70
2021/10/15 01:49:50;;;;;;;;;;;12.80;99.90;;;;;;4974780;28;19953;-70
2021/10/15 01:52:15;;;;;;;;;;;12.80;99.90;;;;;;4974959;28;19945;-70
2021/10/15 01:54:41;;;;;;;;;;;12.80;99.90;;;;;;4974748;28;19945;-70
2021/10/15 01:57:06;;;;;;;;;;;12.70;99.90;;;;;;4974913;28;19906;-70
2021/10/15 01:59:32;;;;;;;;;;;12.80;99.90;;;;;;4974626;28;19965;-70
2021/10/15 02:01:59;;;;;;;;;;;12.70;99.90;;;;;;4974524;28;20004;-70
2021/10/15 02:04:24;;;;;;;;;;;12.70;99.90;;;;;;4974677;28;20432;-70
2021/10/15 02:06:49;;;;;;;;;;;12.70;99.90;;;;;;4989959;28;19906;-70
2021/10/15 02:09:15;;;;;;;;;;;12.60;99.90;;;;;;4974991;28;19906;-70
2021/10/15 02:11:40;;;;;;;;;;;12.60;99.90;;;;;;4978646;28;19949;-70
2021/10/15 02:14:06;;;;;;;;;;;12.60;99.90;;;;;;4978644;28;20365;-71
2021/10/15 02:16:31;;;;;;;;;;;12.60;99.90;;;;;;4978376;28;20274;-70
2021/10/15 02:18:57;;;;;;;;;;;12.60;99.90;;;;;;4978842;28;19917;-70
2021/10/15 02:21:22;;;;;;;;;;;12.50;99.90;;;;;;4978229;28;20428;-70
2021/10/15 02:23:47;;;;;;;;;;;12.50;99.90;;;;;;4978272;28;19910;-70
2021/10/15 02:26:20;;;;;;;;;;;12.50;99.90;;;;;;4978215;28;19906;-70
2021/10/15 02:28:45;;;;;;;;;;;12.50;99.90;;;;;;4993256;28;19910;-70
2021/10/15 02:31:11;;;;;;;;;;;12.50;99.90;;;;;;4978233;28;19906;-69
2021/10/15 02:33:36;;;;;;;;;;;12.50;99.90;;;;;;4978070;28;20421;-70
2021/10/15 02:36:02;;;;;;;;;;;12.60;99.90;;;;;;4978025;28;19996;-69
2021/10/15 02:38:27;;;;;;;;;;;12.60;99.90;;;;;;4977944;28;19910;-69
2021/10/15 02:40:53;;;;;;;;;;;12.50;99.90;;;;;;4977960;28;19910;-70
2021/10/15 02:43:18;;;;;;;;;;;12.50;99.90;;;;;;4977900;28;19906;-69
2021/10/15 02:45:43;;;;;;;;;;;12.50;99.90;;;;;;4977873;28;19910;-69
2021/10/15 02:48:09;;;;;;;;;;;12.40;99.90;;;;;;4977810;28;19949;-69
2021/10/15 02:50:34;;;;;;;;;;;12.40;99.90;;;;;;4978285;28;19917;-69
2021/10/15 02:53:00;;;;;;;;;;;12.40;99.90;;;;;;4978308;28;19906;-69
2021/10/15 02:55:25;;;;;;;;;;;12.40;99.90;;;;;;4977738;28;19906;-70
2021/10/15 02:57:51;;;;;;;;;;;12.40;99.90;;;;;;4977636;28;19906;-69
2021/10/15 03:00:16;;;;;;;;;;;12.40;99.90;;;;;;4977523;28;20281;-69
2021/10/15 03:02:42;;;;;;;;;;;12.40;99.90;;;;;;4977405;28;19914;-69
2021/10/15 03:05:07;;;;;;;;;;;12.40;99.90;;;;;;4977542;28;20377;-70
2021/10/15 03:07:34;;;;;;;;;;;12.40;99.90;;;;;;4977531;28;20281;-69
2021/10/15 03:10:00;;;;;;;;;;;12.50;99.90;;;;;;4977494;28;19906;-69
2021/10/15 03:12:25;;;;;;;;;;;12.40;99.90;;;;;;4977334;28;19906;-70
2021/10/15 03:14:51;;;;;;;;;;;12.50;99.90;;;;;;4977609;28;19949;-69
2021/10/15 03:17:16;;;;;;;;;;;12.50;99.90;;;;;;4977566;28;19906;-69
2021/10/15 03:19:42;;;;;;;;;;;12.50;99.90;;;;;;4977243;28;20280;-69
2021/10/15 03:22:07;;;;;;;;;;;12.50;99.90;;;;;;4976313;28;19906;-69
2021/10/15 03:24:33;;;;;;;;;;;12.40;99.90;;;;;;4977188;28;19906;-69
2021/10/15 03:26:58;;;;;;;;;;;12.50;99.90;;;;;;4977429;28;19938;-69
2021/10/15 03:29:24;;;;;;;;;;;12.30;99.90;;;;;;4977079;28;19910;-69
2021/10/15 03:31:49;;;;;;;;;;;12.10;99.90;;;;;;4976981;28;20369;-69
2021/10/15 03:34:15;;;;;;;;;;;11.80;99.90;;;;;;4976990;28;19906;-69
2021/10/15 03:36:40;;;;;;;;;;;11.60;99.90;;;;;;4976915;28;19906;-69
2021/10/15 03:39:05;;;;;;;;;;;11.50;99.90;;;;;;4976821;28;19910;-69
2021/10/15 03:41:31;;;;;;;;;;;11.40;99.90;;;;;;4976830;28;19906;-69
2021/10/15 03:43:56;;;;;;;;;;;11.20;99.90;;;;;;4976801;28;19928;-69
2021/10/15 03:46:22;;;;;;;;;;;11.00;99.90;;;;;;4976782;28;20005;-69
2021/10/15 03:48:47;;;;;;;;;;;10.90;99.90;;;;;;4976737;28;19906;-69
2021/10/15 03:51:13;;;;;;;;;;;10.80;99.90;;;;;;4976643;28;20374;-69
2021/10/15 03:53:38;;;;;;;;;;;10.80;99.90;;;;;;4976639;28;19978;-69
2021/10/15 03:56:04;;;;;;;;;;;10.70;99.90;;;;;;4977147;28;20380;-69
2021/10/15 03:58:29;;;;;;;;;;;10.70;99.90;;;;;;4976502;28;19910;-69
2021/10/15 04:00:55;;;;;;;;;;;10.60;99.90;;;;;;4976695;28;20332;-69
2021/10/15 04:03:20;;;;;;;;;;;10.60;99.90;;;;;;4976777;28;19906;-69
2021/10/15 04:05:46;;;;;;;;;;;10.60;99.90;;;;;;4976708;28;19906;-69
2021/10/15 04:08:12;;;;;;;;;;;10.60;99.90;;;;;;4976351;28;19912;-69
2021/10/15 04:10:38;;;;;;;;;;;10.60;99.90;;;;;;4976288;28;19906;-69
2021/10/15 04:13:03;;;;;;;;;;;10.60;99.90;;;;;;4976588;28;19913;-69
2021/10/15 04:15:29;;;;;;;;;;;10.60;99.90;;;;;;4976452;28;19993;-69
2021/10/15 04:17:54;;;;;;;;;;;10.50;99.90;;;;;;4991138;28;20365;-69
2021/10/15 04:20:19;;;;;;;;;;;10.60;99.90;;;;;;4976539;28;20314;-69
2021/10/15 04:22:45;;;;;;;;;;;10.50;99.90;;;;;;4976362;28;19953;-69
2021/10/15 04:25:10;;;;;;;;;;;10.40;99.90;;;;;;4976303;28;19910;-69
2021/10/15 04:27:36;;;;;;;;;;;10.40;99.90;;;;;;4976020;28;20021;-69
2021/10/15 04:30:02;;;;;;;;;;;10.30;99.90;;;;;;4975923;28;19913;-69
2021/10/15 04:32:29;;;;;;;;;;;10.20;99.90;;;;;;4975491;28;19957;-69
2021/10/15 04:34:54;;;;;;;;;;;10.20;99.90;;;;;;4990788;28;20373;-69
2021/10/15 04:37:20;;;;;;;;;;;10.20;99.90;;;;;;4976119;28;19910;-69
2021/10/15 04:39:45;;;;;;;;;;;10.10;99.90;;;;;;4990656;28;19964;-70
2021/10/15 04:42:11;;;;;;;;;;;10.00;99.90;;;;;;4975705;28;19910;-69
2021/10/15 04:44:36;;;;;;;;;;;10.00;99.90;;;;;;4975680;28;19909;-69
2021/10/15 04:47:02;;;;;;;;;;;9.90;99.90;;;;;;4975939;28;19910;-69
2021/10/15 04:49:27;;;;;;;;;;;9.90;99.90;;;;;;4990569;28;19906;-69
2021/10/15 04:51:53;;;;;;;;;;;9.90;99.90;;;;;;4975732;28;20010;-69
2021/10/15 04:54:18;;;;;;;;;;;9.80;99.90;;;;;;4975495;28;19906;-69
2021/10/15 04:56:44;;;;;;;;;;;9.80;99.90;;;;;;4975786;28;19906;-69
2021/10/15 04:59:09;;;;;;;;;;;9.80;99.90;;;;;;4975389;28;19910;-69
2021/10/15 05:01:34;;;;;;;;;;;9.80;99.90;;;;;;4975465;28;20396;-69
2021/10/15 05:04:00;;;;;;;;;;;9.80;99.90;;;;;;4975347;28;20284;-69
2021/10/15 05:06:25;;;;;;;;;;;9.70;99.90;;;;;;4975891;28;19905;-69
2021/10/15 05:11:32;;;;;;;;;;;9.70;99.90;;;;;;4975506;28;19906;-70
2021/10/15 05:13:57;;;;;;;;;;;9.70;99.90;;;;;;4975530;28;19933;-70
2021/10/15 05:16:23;;;;;;;;;;;9.70;99.90;;;;;;4975475;28;19953;-70
2021/10/15 05:18:48;;;;;;;;;;;9.70;99.90;;;;;;4975491;28;20301;-70
2021/10/15 05:21:14;;;;;;;;;;;9.70;99.90;;;;;;4975045;28;19906;-70
2021/10/15 05:23:39;;;;;;;;;;;9.70;99.90;;;;;;4990055;28;19913;-70
2021/10/15 05:26:05;;;;;;;;;;;9.60;99.90;;;;;;4975042;28;20340;-70
2021/10/15 05:28:30;;;;;;;;;;;9.60;99.90;;;;;;4975006;28;20455;-70
2021/10/15 05:30:57;;;;;;;;;;;9.60;99.90;;;;;;4974909;28;19906;-70
2021/10/15 05:33:23;;;;;;;;;;;9.60;99.90;;;;;;4974994;28;20281;-70
2021/10/15 05:35:48;;;;;;;;;;;9.60;99.90;;;;;;4975152;28;19906;-70
2021/10/15 05:38:14;;;;;;;;;;;9.60;99.90;;;;;;4974886;28;20422;-70
2021/10/15 05:40:39;;;;;;;;;;;9.60;99.90;;;;;;4989683;28;19917;-70
2021/10/15 05:43:04;;;;;;;;;;;9.60;99.90;;;;;;4975109;28;19961;-70
2021/10/15 05:45:30;;;;;;;;;;;9.60;99.90;;;;;;4972910;28;19942;-70
2021/10/15 05:47:55;;;;;;;;;;;9.60;99.90;;;;;;4974800;28;20388;-70
2021/10/15 05:50:21;;;;;;;;;;;9.60;99.90;;;;;;4974731;28;19913;-70
2021/10/15 05:52:49;;;;;;;;;;;9.60;99.90;;;;;;4974818;28;19906;-70
2021/10/15 06:00:25;;;;;;;;;;;9.60;99.90;;;;;;4974815;28;19985;-70
2021/10/15 06:02:51;;;;;;;;;;;9.60;99.90;;;;;;4997830;23;20382;-69
2021/10/15 06:06:01;;;;;;;;;;;9.60;99.90;;;;;;4974616;28;20358;-69
2021/10/15 06:16:20;;;;;;;;;;;9.50;99.90;;;;;;4955868;29;20347;-69
2021/10/15 06:18:52;;;;;;;;;;;9.40;99.90;;;;;;4955161;28;19910;-69
2021/10/15 06:21:18;;;;;;;;;;;9.30;99.90;;;;;;4955084;28;20034;-69
2021/10/15 06:23:44;;;;;;;;;;;9.40;99.90;;;;;;4955545;28;19969;-69
2021/10/15 06:26:09;;;;;;;;;;;9.30;99.90;;;;;;4955187;29;19913;-69
2021/10/15 06:28:35;;;;;;;;;;;9.30;99.90;;;;;;4955130;29;19910;-69
2021/10/15 06:31:00;;;;;;;;;;;9.30;99.90;;;;;;4955305;28;19913;-69
2021/10/15 06:33:26;;;;;;;;;;;9.20;99.90;;;;;;4955080;29;20001;-69
2021/10/15 06:35:51;;;;;;;;;;;9.30;99.90;;;;;;4955116;29;19906;-69
2021/10/15 06:38:17;;;;;;;;;;;9.30;99.90;;;;;;4953859;29;19945;-69
2021/10/15 06:40:42;;;;;;;;;;;9.30;99.90;;;;;;4955273;29;20378;-69
2021/10/15 06:43:09;;;;;;;;;;;9.30;99.90;;;;;;4955272;28;19906;-69
2021/10/15 06:45:35;;;;;;;;;;;9.40;99.90;;;;;;4955049;28;19934;-69
2021/10/15 06:48:01;;;;;;;;;;;9.40;99.90;;;;;;4955328;28;19919;-69
2021/10/15 06:50:26;;;;;;;;;;;9.40;99.90;;;;;;4955250;29;20038;-69
2021/10/15 06:52:52;;;;;;;;;;;9.40;99.90;;;;;;4954883;28;19953;-69
2021/10/15 06:55:18;;;;;;;;;;;9.40;99.90;;;;;;4955591;28;20005;-69
2021/10/15 06:57:44;;;;;;;;;;;9.40;99.90;;;;;;4958665;28;19913;-69
2021/10/15 07:00:10;;;;;;;;;;;9.40;99.90;;;;;;4958253;28;19910;-69
2021/10/15 07:02:36;;;;;;;;;;;9.40;99.90;;;;;;4958037;28;19918;-69
2021/10/15 07:05:01;;;;;;;;;;;9.40;99.90;;;;;;4958489;29;19906;-69
2021/10/15 07:07:27;;;;;;;;;;;9.40;99.90;;;;;;4958191;29;19906;-69
2021/10/15 07:09:52;;;;;;;;;;;9.40;99.90;;;;;;4958159;29;19910;-69
2021/10/15 07:12:18;;;;;;;;;;;9.40;99.90;;;;;;4958175;28;20318;-69
2021/10/15 07:14:43;;;;;;;;;;;9.30;99.90;;;;;;4958600;29;20346;-69
2021/10/15 07:17:08;;;;;;;;;;;9.30;99.90;;;;;;4957976;29;19906;-69
2021/10/15 07:19:34;;;;;;;;;;;9.20;99.90;;;;;;4958442;29;19933;-69
2021/10/15 07:21:59;;;;;;;;;;;9.20;99.90;;;;;;4957806;28;19913;-69
2021/10/15 07:24:25;;;;;;;;;;;9.10;99.90;;;;;;4957860;29;19910;-69
2021/10/15 07:26:51;;;;;;;;;;;9.10;99.90;;;;;;4957835;29;19913;-69
2021/10/15 07:29:16;;;;;;;;;;;9.00;99.90;;;;;;4957816;28;20259;-69
2021/10/15 07:31:42;;;;;;;;;;;9.00;99.90;;;;;;4957664;28;19914;-69
2021/10/15 07:34:08;;;;;;;;;;;9.00;99.90;;;;;;4957723;29;20045;-69
2021/10/15 07:36:34;;;;;;;;;;;9.00;99.90;;;;;;4958242;29;19949;-69
2021/10/15 07:38:59;;;;;;;;;;;8.90;99.90;;;;;;4958002;28;19910;-69
2021/10/15 07:41:25;;;;;;;;;;;8.90;99.90;;;;;;4957555;28;20437;-69
2021/10/15 07:43:51;;;;;;;;;;;8.90;99.90;;;;;;4957540;29;19906;-69
2021/10/15 07:46:19;;;;;;;;;;;8.80;99.90;;;;;;4957777;28;19907;-69
2021/10/15 07:48:44;;;;;;;;;;;8.80;99.90;;;;;;4957402;29;19958;-69
2021/10/15 07:51:10;;;;;;;;;;;8.90;99.90;;;;;;4957876;28;20274;-69
2021/10/15 07:53:35;;;;;;;;;;;9.10;99.90;;;;;;4957377;29;19917;-69
2021/10/15 07:56:01;;;;;;;;;;;9.30;99.90;;;;;;4957305;29;19913;-69
2021/10/15 07:58:26;;;;;;;;;;;9.40;99.90;;;;;;4957280;29;19933;-69
2021/10/15 08:00:52;;;;;;;;;;;9.30;99.90;;;;;;4957430;29;20429;-69
2021/10/15 08:03:17;;;;;;;;;;;9.20;99.90;;;;;;4956992;28;20046;-69
2021/10/15 08:05:43;;;;;;;;;;;9.30;99.90;;;;;;4957134;29;19907;-69
2021/10/15 08:08:08;;;;;;;;;;;9.50;99.90;;;;;;4956800;28;19915;-69
2021/10/15 08:10:34;;;;;;;;;;;9.70;99.90;;;;;;4957055;29;19907;-69
2021/10/15 08:13:01;;;;;;;;;;;9.80;99.90;;;;;;4956912;28;20428;-69
2021/10/15 08:15:26;;;;;;;;;;;10.00;99.90;;;;;;4956956;29;20325;-69
2021/10/15 08:17:53;;;;;;;;;;;10.10;99.90;;;;;;4957449;29;19910;-69
2021/10/15 08:20:20;;;;;;;;;;;10.20;99.90;;;;;;4956834;28;19953;-69
2021/10/15 08:22:46;;;;;;;;;;;10.40;99.90;;;;;;4971579;28;19911;-69
2021/10/15 08:25:11;;;;;;;;;;;10.40;99.90;;;;;;4955539;29;20286;-69
2021/10/15 08:27:38;;;;;;;;;;;10.50;99.90;;;;;;4956960;29;19926;-69
2021/10/15 08:30:04;;;;;;;;;;;10.70;99.90;;;;;;4956658;29;19998;-69
2021/10/15 08:32:29;;;;;;;;;;;10.90;99.90;;;;;;4956868;28;19907;-69
2021/10/15 08:34:55;;;;;;;;;;;10.90;99.90;;;;;;4956858;29;19953;-69
2021/10/15 08:37:20;;;;;;;;;;;11.00;99.90;;;;;;4956553;29;19997;-69
2021/10/15 08:39:46;;;;;;;;;;;11.10;99.90;;;;;;4956420;29;19910;-70
2021/10/15 08:42:11;;;;;;;;;;;11.20;99.90;;;;;;4956663;28;19907;-70
2021/10/15 08:44:45;;;;;;;;;;;11.30;99.90;;;;;;4956416;29;19913;-69
2021/10/15 08:47:15;;;;;;;;;;;11.50;99.90;;;;;;4971277;28;20279;-70
2021/10/15 08:49:40;;;;;;;;;;;11.60;99.90;;;;;;4956404;28;19993;-70
2021/10/15 08:52:06;;;;;;;;;;;11.70;99.90;;;;;;4956474;28;20366;-70
2021/10/15 08:54:32;;;;;;;;;;;11.70;99.90;;;;;;4956525;29;20409;-70
2021/10/15 08:56:58;;;;;;;;;;;11.80;99.90;;;;;;4956352;28;20262;-70
2021/10/15 08:59:37;;;;;;;;;;;12.00;99.90;;;;;;4956124;28;19910;-69
2021/10/15 09:02:16;;;;;;;;;;;12.00;99.90;;;;;;4956109;28;20400;-70
2021/10/15 09:04:43;;;;;;;;;;;12.30;99.90;;;;;;4956108;28;19910;-70
2021/10/15 09:07:11;;;;;;;;;;;12.50;99.90;;;;;;4956138;28;19912;-70
2021/10/15 09:09:36;;;;;;;;;;;12.60;99.90;;;;;;4956049;28;19906;-70
2021/10/15 09:12:07;;;;;;;;;;;12.40;99.90;;;;;;4970716;28;19914;-70
2021/10/15 09:14:35;;;;;;;;;;;12.20;99.90;;;;;;4970736;28;19907;-69
2021/10/15 09:17:02;;;;;;;;;;;11.80;99.90;;;;;;4956112;28;19907;-70
2021/10/15 09:19:29;;;;;;;;;;;11.70;99.90;;;;;;4954942;28;19910;-70
2021/10/15 09:22:04;;;;;;;;;;;11.70;99.90;;;;;;4955933;28;19962;-70
2021/10/15 09:24:37;;;;;;;;;;;11.90;99.90;;;;;;4955763;29;19957;-70
2021/10/15 09:27:10;;;;;;;;;;;12.00;99.90;;;;;;4956036;28;20354;-70
2021/10/15 09:29:39;;;;;;;;;;;12.20;99.90;;;;;;4956055;28;20377;-70
2021/10/15 09:32:05;;;;;;;;;;;12.40;99.90;;;;;;4955760;28;19907;-70
2021/10/15 09:34:32;;;;;;;;;;;12.50;99.90;;;;;;4955913;29;20001;-70
2021/10/15 09:36:57;;;;;;;;;;;12.60;99.90;;;;;;4955611;29;19957;-70
2021/10/15 09:39:25;;;;;;;;;;;12.70;99.90;;;;;;4955810;29;19910;-70
2021/10/15 09:41:50;;;;;;;;;;;12.90;99.90;;;;;;4955598;28;19911;-70
2021/10/15 09:44:32;;;;;;;;;;;13.00;99.90;;;;;;4955814;29;19914;-70
2021/10/15 09:47:14;;;;;;;;;;;13.20;99.90;;;;;;4955821;28;19914;-70
2021/10/15 09:50:06;;;;;;;;;;;13.10;99.90;;;;;;4955547;28;19931;-70
2021/10/15 09:52:37;;;;;;;;;;;13.00;99.90;;;;;;4952414;28;20344;-70
2021/10/15 09:55:04;;;;;;;;;;;12.70;99.90;;;;;;4955354;28;19985;-70
2021/10/15 09:57:34;;;;;;;;;;;12.40;99.90;;;;;;4955472;28;19910;-70
2021/10/15 10:00:00;;;;;;;;;;;12.20;99.90;;;;;;4955581;28;19911;-70
2021/10/15 10:02:26;;;;;;;;;;;12.20;99.90;;;;;;4955330;28;19923;-71
2021/10/15 10:04:52;;;;;;;;;;;12.40;99.90;;;;;;4955686;28;20001;-70
2021/10/15 10:07:18;;;;;;;;;;;12.70;99.90;;;;;;4955379;28;19906;-70
2021/10/15 10:09:44;;;;;;;;;;;13.00;99.90;;;;;;4955341;28;19913;-70
2021/10/15 10:12:11;;;;;;;;;;;13.20;99.90;;;;;;4970033;28;20393;-71
2021/10/15 10:14:37;;;;;;;;;;;13.00;99.90;;;;;;4955516;28;19930;-70
2021/10/15 10:17:03;;;;;;;;;;;12.60;99.90;;;;;;4955259;29;20001;-70
2021/10/15 10:19:33;;;;;;;;;;;12.40;99.90;;;;;;4955515;28;20353;-70
2021/10/15 10:21:59;;;;;;;;;;;12.50;99.90;;;;;;4955231;28;19907;-70
2021/10/15 10:24:26;;;;;;;;;;;12.80;99.90;;;;;;4953998;29;19906;-70
2021/10/15 10:26:55;;;;;;;;;;;12.90;99.90;;;;;;4955508;28;20354;-70
2021/10/15 10:29:21;;;;;;;;;;;12.80;99.90;;;;;;4955186;28;19906;-70
2021/10/15 10:31:47;;;;;;;;;;;12.80;99.90;;;;;;4957786;28;20388;-71
2021/10/15 10:34:21;;;;;;;;;;;12.90;99.90;;;;;;4958909;28;19907;-71
2021/10/15 10:37:00;;;;;;;;;;;13.00;99.90;;;;;;4958813;28;20412;-70
2021/10/15 10:39:26;;;;;;;;;;;13.10;99.90;;;;;;4958972;28;20005;-71
2021/10/15 10:42:06;;;;;;;;;;;13.30;99.90;;;;;;4958765;28;20346;-71
2021/10/15 10:44:32;;;;;;;;;;;13.40;99.90;;;;;;4957757;29;19958;-70
2021/10/15 10:47:14;;;;;;;;;;;13.70;99.90;;;;;;4959371;28;19914;-71
2021/10/15 10:49:40;;;;;;;;;;;13.90;99.90;;;;;;4958592;28;19922;-71
2021/10/15 10:52:16;;;;;;;;;;;13.80;99.90;;;;;;4958679;28;19914;-71
2021/10/15 10:54:42;;;;;;;;;;;13.10;99.90;;;;;;4958785;28;19958;-71
2021/10/15 10:57:15;;;;;;;;;;;12.50;99.90;;;;;;4958630;28;19907;-71
2021/10/15 10:59:41;;;;;;;;;;;12.20;99.90;;;;;;4958286;28;19917;-70
2021/10/15 11:02:10;;;;;;;;;;;12.00;99.90;;;;;;4956911;28;19915;-71
2021/10/15 11:04:48;;;;;;;;;;;11.80;99.90;;;;;;4958270;29;19914;-71
2021/10/15 11:07:17;;;;;;;;;;;11.70;99.90;;;;;;4958445;28;19907;-71
2021/10/15 11:09:42;;;;;;;;;;;12.10;99.90;;;;;;4958447;29;19989;-71
2021/10/15 11:12:08;;;;;;;;;;;12.40;99.90;;;;;;4972906;28;20347;-71
2021/10/15 11:14:46;;;;;;;;;;;12.50;99.90;;;;;;4958094;28;19961;-71
2021/10/15 11:17:12;;;;;;;;;;;12.70;99.90;;;;;;4958240;29;19907;-71
2021/10/15 11:19:38;;;;;;;;;;;13.10;99.90;;;;;;4958234;28;19910;-71
2021/10/15 11:22:03;;;;;;;;;;;13.20;99.90;;;;;;4957868;28;19947;-71
2021/10/15 11:24:29;;;;;;;;;;;13.50;99.90;;;;;;4957854;29;19914;-71
2021/10/15 11:26:55;;;;;;;;;;;13.80;99.90;;;;;;4957888;29;19906;-71
2021/10/15 11:29:20;;;;;;;;;;;13.80;99.90;;;;;;4958626;29;19929;-71
2021/10/15 11:31:56;;;;;;;;;;;13.60;99.90;;;;;;4958013;28;19917;-71
2021/10/15 11:34:22;;;;;;;;;;;13.40;99.90;;;;;;4957763;28;19906;-71
2021/10/15 11:36:47;;;;;;;;;;;13.20;99.90;;;;;;4972831;28;19906;-71
2021/10/15 11:39:13;;;;;;;;;;;13.30;99.90;;;;;;4956340;28;20314;-71
2021/10/15 11:41:51;;;;;;;;;;;13.50;99.90;;;;;;4971927;28;19961;-71
2021/10/15 11:44:30;;;;;;;;;;;13.70;99.90;;;;;;4957274;28;19954;-71
2021/10/15 11:46:55;;;;;;;;;;;13.90;99.90;;;;;;4957576;28;19918;-71
2021/10/15 11:49:21;;;;;;;;;;;14.10;99.90;;;;;;4957444;29;19907;-71
2021/10/15 11:51:46;;;;;;;;;;;14.20;99.90;;;;;;4957907;28;19906;-70
2021/10/15 11:54:12;;;;;;;;;;;14.30;99.90;;;;;;4957489;29;20358;-71
2021/10/15 11:56:37;;;;;;;;;;;14.30;99.90;;;;;;4957856;29;20314;-71
2021/10/15 11:59:07;;;;;;;;;;;14.30;99.90;;;;;;4957510;29;19910;-71
2021/10/15 12:01:33;;;;;;;;;;;14.50;99.90;;;;;;5063434;23;19915;-72
2021/10/15 12:04:03;;;;;;;;;;;14.50;99.90;;;;;;4976662;28;19918;-72
2021/10/15 12:06:31;;;;;;;;;;;14.60;99.90;;;;;;4976790;28;19906;-72
2021/10/15 12:08:59;;;;;;;;;;;14.60;99.90;;;;;;4976481;28;19909;-72
2021/10/15 12:11:45;;;;;;;;;;;14.70;99.90;;;;;;4977495;28;19906;-72
2021/10/15 12:14:17;;;;;;;;;;;14.60;99.90;;;;;;4956654;29;19910;-72
2021/10/15 12:16:42;;;;;;;;;;;14.30;99.90;;;;;;4957021;29;19950;-72
2021/10/15 12:19:14;;;;;;;;;;;14.30;99.90;;;;;;4956857;29;19966;-72
2021/10/15 12:21:43;;;;;;;;;;;14.40;99.90;;;;;;4957066;28;20429;-72
2021/10/15 12:24:11;;;;;;;;;;;14.70;99.90;;;;;;4956849;28;20437;-72
2021/10/15 12:26:36;;;;;;;;;;;14.90;99.90;;;;;;4957055;28;19913;-72
2021/10/15 12:29:02;;;;;;;;;;;15.00;99.90;;;;;;4956767;29;19907;-72
2021/10/15 12:31:32;;;;;;;;;;;15.10;99.90;;;;;;4956677;28;19907;-72
2021/10/15 12:34:01;;;;;;;;;;;15.10;99.90;;;;;;4956967;28;19953;-72
2021/10/15 12:36:26;;;;;;;;;;;15.00;99.90;;;;;;4956612;29;19965;-72
2021/10/15 12:38:52;;;;;;;;;;;15.00;99.90;;;;;;4956523;28;19933;-72
2021/10/15 12:41:24;;;;;;;;;;;14.60;99.90;;;;;;4956511;29;19949;-72
2021/10/15 12:43:52;;;;;;;;;;;14.10;99.90;;;;;;4956424;28;19906;-72
2021/10/15 12:46:18;;;;;;;;;;;13.70;99.90;;;;;;4955210;28;19906;-72
2021/10/15 12:48:44;;;;;;;;;;;13.30;99.90;;;;;;4956709;28;19906;-72
2021/10/15 12:51:10;;;;;;;;;;;12.80;99.90;;;;;;4956360;29;19913;-72
2021/10/15 12:53:37;;;;;;;;;;;12.60;99.90;;;;;;4956241;28;19913;-72
2021/10/15 12:56:03;;;;;;;;;;;12.50;99.90;;;;;;4956246;28;19956;-72
2021/10/15 12:58:31;;;;;;;;;;;13.10;99.90;;;;;;4956161;28;20396;-72
2021/10/15 13:00:58;;;;;;;;;;;14.10;99.90;;;;;;4956141;28;19917;-72
2021/10/15 13:03:24;;;;;;;;;;;14.70;99.90;;;;;;4956069;28;19918;-72
2021/10/15 13:05:51;;;;;;;;;;;15.10;99.90;;;;;;4956137;28;19957;-72
2021/10/15 13:08:18;;;;;;;;;;;15.20;99.90;;;;;;4956114;28;19996;-72
2021/10/15 13:10:44;;;;;;;;;;;15.20;99.90;;;;;;4956052;28;19913;-72
2021/10/15 13:13:09;;;;;;;;;;;14.60;99.90;;;;;;4955937;28;20282;-72
2021/10/15 13:15:35;;;;;;;;;;;13.80;99.90;;;;;;4956255;28;19906;-72
2021/10/15 13:18:00;;;;;;;;;;;13.30;99.90;;;;;;4955920;29;20285;-72
2021/10/15 13:20:26;;;;;;;;;;;12.90;99.90;;;;;;4955892;28;20286;-72
2021/10/15 13:22:52;;;;;;;;;;;12.70;99.90;;;;;;4955795;28;19906;-72
2021/10/15 13:25:18;;;;;;;;;;;12.80;99.90;;;;;;4956143;28;19945;-71
2021/10/15 13:27:43;;;;;;;;;;;12.60;99.90;;;;;;4955768;29;19906;-72
2021/10/15 13:30:10;;;;;;;;;;;12.50;99.90;;;;;;4956011;29;20305;-71
2021/10/15 13:32:35;;;;;;;;;;;13.00;99.90;;;;;;4955648;28;19906;-72
2021/10/15 13:35:01;;;;;;;;;;;13.70;99.90;;;;;;4955617;28;19906;-72
2021/10/15 13:37:34;;;;;;;;;;;13.80;99.90;;;;;;4955643;29;19913;-72
2021/10/15 13:40:01;;;;;;;;;;;13.60;99.90;;;;;;4955899;28;19921;-72
2021/10/15 13:45:30;;;;;;;;;;;12.70;99.90;;;;;;4956193;29;20381;-71
2021/10/15 13:50:40;;;;;;;;;;;12.70;99.90;;;;;;4955568;29;19917;-72
2021/10/15 13:53:06;;;;;;;;;;;12.90;99.90;;;;;;4955737;28;19929;-72
2021/10/15 13:55:39;;;;;;;;;;;13.00;99.90;;;;;;4955531;28;19906;-72
2021/10/15 13:58:11;;;;;;;;;;;13.20;99.90;;;;;;4955585;28;19906;-72
2021/10/15 14:00:41;;;;;;;;;;;13.40;99.90;;;;;;4955743;28;20016;-72
2021/10/15 14:03:54;;;;;;;;;;;13.80;99.90;;;;;;4955490;28;20001;-72
2021/10/15 14:05:55;;;;;;;;;;;14.40;99.90;;;;;;4951415;28;19957;-72
2021/10/15 14:08:22;;;;;;;;;;;14.80;99.90;;;;;;4974192;28;19907;-72
2021/10/15 14:10:47;;;;;;;;;;;15.00;99.90;;;;;;4959618;28;19906;-72
2021/10/15 14:13:12;;;;;;;;;;;15.20;99.90;;;;;;4959399;28;19906;-72
2021/10/15 14:15:38;;;;;;;;;;;15.10;99.90;;;;;;4959228;29;20366;-72
2021/10/15 14:18:03;;;;;;;;;;;14.90;99.90;;;;;;4959703;29;20259;-72
2021/10/15 14:20:31;;;;;;;;;;;14.70;99.90;;;;;;4959578;29;19914;-72
2021/10/15 14:22:56;;;;;;;;;;;14.60;99.90;;;;;;4973836;28;20370;-72
2021/10/15 14:25:22;;;;;;;;;;;14.70;99.90;;;;;;4959067;29;20053;-72
2021/10/15 14:27:47;;;;;;;;;;;14.80;99.90;;;;;;4958983;29;19906;-72
2021/10/15 14:30:13;;;;;;;;;;;14.60;99.90;;;;;;4973800;28;20281;-72
2021/10/15 14:32:39;;;;;;;;;;;14.00;99.90;;;;;;4958797;28;19910;-72
2021/10/15 14:35:05;;;;;;;;;;;13.50;99.90;;;;;;4958860;28;19906;-72
2021/10/15 14:37:30;;;;;;;;;;;13.30;99.90;;;;;;4958799;28;19973;-72
2021/10/15 14:39:55;;;;;;;;;;;13.50;99.90;;;;;;4958659;29;19933;-72
2021/10/15 14:42:21;;;;;;;;;;;13.90;99.90;;;;;;4958590;28;19906;-72